sensor_id;sensor_type;location;lat;lon;timestamp;temperature;humidity
30473;DHT22;17263;48.160;11.452;2022-08-11T00:01:22;17.40;89.10
30473;DHT22;17263;48.160;11.452;2022-08-11T00:06:32;17.30;89.70
30473;DHT22;17263;48.160;11.452;2022-08-11T00:09:01;17.30;90.00
30473;DHT22;17263;48.160;11.452;2022-08-11T00:14:03;17.30;90.60
30473;DHT22;17263;48.160;11.452;2022-08-11T00:16:30;17.30;90.70
30473;DHT22;17263;48.160;11.452;2022-08-11T00:18:57;17.20;90.80
30473;DHT22;17263;48.160;11.452;2022-08-11T00:21:26;17.20;91.10
30473;DHT22;17263;48.160;11.452;2022-08-11T00:23:59;17.20;91.40
30473;DHT22;17263;48.160;11.452;2022-08-11T00:26:27;17.10;91.60
30473;DHT22;17263;48.160;11.452;2022-08-11T00:28:53;17.10;91.90
30473;DHT22;17263;48.160;11.452;2022-08-11T00:31:27;17.00;92.20
30473;DHT22;17263;48.160;11.452;2022-08-11T00:33:54;17.10;92.50
30473;DHT22;17263;48.160;11.452;2022-08-11T00:36:27;17.00;92.80
30473;DHT22;17263;48.160;11.452;2022-08-11T00:39:02;17.00;93.00
30473;DHT22;17263;48.160;11.452;2022-08-11T00:41:46;16.90;93.30
30473;DHT22;17263;48.160;11.452;2022-08-11T00:44:36;16.90;93.70
30473;DHT22;17263;48.160;11.452;2022-08-11T01:07:17;16.80;96.30
30473;DHT22;17263;48.160;11.452;2022-08-11T01:18:37;16.70;98.10
30473;DHT22;17263;48.160;11.452;2022-08-11T01:41:41;16.70;99.90
30473;DHT22;17263;48.160;11.452;2022-08-11T01:44:57;16.70;99.90
30473;DHT22;17263;48.160;11.452;2022-08-11T01:47:38;16.70;99.90
30473;DHT22;17263;48.160;11.452;2022-08-11T01:53:20;16.60;99.90
30473;DHT22;17263;48.160;11.452;2022-08-11T01:59:25;16.50;99.90
30473;DHT22;17263;48.160;11.452;2022-08-11T02:04:40;16.40;99.90
30473;DHT22;17263;48.160;11.452;2022-08-11T02:07:21;16.40;99.90
30473;DHT22;17263;48.160;11.452;2022-08-11T02:10:08;16.40;99.90
30473;DHT22;17263;48.160;11.452;2022-08-11T02:12:58;16.40;99.90
30473;DHT22;17263;48.160;11.452;2022-08-11T02:15:32;16.30;99.90
30473;DHT22;17263;48.160;11.452;2022-08-11T02:20:55;16.30;99.90
30473;DHT22;17263;48.160;11.452;2022-08-11T02:24:02;16.30;99.90
30473;DHT22;17263;48.160;11.452;2022-08-11T02:26:48;16.20;99.90
30473;DHT22;17263;48.160;11.452;2022-08-11T02:29:42;16.20;99.90
30473;DHT22;17263;48.160;11.452;2022-08-11T02:32:28;16.20;99.90
30473;DHT22;17263;48.160;11.452;2022-08-11T02:35:37;16.20;99.90
30473;DHT22;17263;48.160;11.452;2022-08-11T02:41:24;16.10;99.90
30473;DHT22;17263;48.160;11.452;2022-08-11T02:47:12;16.00;99.90
30473;DHT22;17263;48.160;11.452;2022-08-11T02:50:08;16.00;99.90
30473;DHT22;17263;48.160;11.452;2022-08-11T02:52:46;15.90;99.90
30473;DHT22;17263;48.160;11.452;2022-08-11T02:55:37;15.90;99.90
30473;DHT22;17263;48.160;11.452;2022-08-11T02:58:43;15.90;99.90
30473;DHT22;17263;48.160;11.452;2022-08-11T03:01:16;15.90;99.90
30473;DHT22;17263;48.160;11.452;2022-08-11T03:04:06;15.90;99.90
30473;DHT22;17263;48.160;11.452;2022-08-11T03:06:58;15.90;99.90
30473;DHT22;17263;48.160;11.452;2022-08-11T03:09:45;15.90;99.90
30473;DHT22;17263;48.160;11.452;2022-08-11T03:12:24;15.90;99.90
30473;DHT22;17263;48.160;11.452;2022-08-11T03:15:21;15.90;99.90
30473;DHT22;17263;48.160;11.452;2022-08-11T03:18:40;15.90;99.90
30473;DHT22;17263;48.160;11.452;2022-08-11T03:21:22;15.80;99.90
30473;DHT22;17263;48.160;11.452;2022-08-11T03:26:51;15.80;99.90
30473;DHT22;17263;48.160;11.452;2022-08-11T03:30:46;15.70;99.90
30473;DHT22;17263;48.160;11.452;2022-08-11T03:32:50;15.70;99.90
30473;DHT22;17263;48.160;11.452;2022-08-11T03:35:42;15.70;99.90
30473;DHT22;17263;48.160;11.452;2022-08-11T03:38:14;15.70;99.90
30473;DHT22;17263;48.160;11.452;2022-08-11T03:41:02;15.60;99.90
30473;DHT22;17263;48.160;11.452;2022-08-11T03:44:19;15.60;99.90
30473;DHT22;17263;48.160;11.452;2022-08-11T03:52:36;15.40;99.90
30473;DHT22;17263;48.160;11.452;2022-08-11T03:55:41;15.40;99.90
30473;DHT22;17263;48.160;11.452;2022-08-11T04:07:31;15.20;99.90
30473;DHT22;17263;48.160;11.452;2022-08-11T04:18:45;15.20;99.90
30473;DHT22;17263;48.160;11.452;2022-08-11T04:30:02;15.20;99.90
30473;DHT22;17263;48.160;11.452;2022-08-11T04:35:38;15.20;99.90
30473;DHT22;17263;48.160;11.452;2022-08-11T04:44:17;15.30;99.90
30473;DHT22;17263;48.160;11.452;2022-08-11T04:50:36;15.60;99.90
30473;DHT22;17263;48.160;11.452;2022-08-11T04:56:43;16.50;99.90
30473;DHT22;17263;48.160;11.452;2022-08-11T04:59:39;17.20;99.90
30473;DHT22;17263;48.160;11.452;2022-08-11T05:13:47;20.50;99.90
30473;DHT22;17263;48.160;11.452;2022-08-11T05:16:52;20.90;99.90
30473;DHT22;17263;48.160;11.452;2022-08-11T05:19:38;21.20;99.90
30473;DHT22;17263;48.160;11.452;2022-08-11T05:22:28;21.10;99.90
30473;DHT22;17263;48.160;11.452;2022-08-11T05:25:19;21.10;99.90
30473;DHT22;17263;48.160;11.452;2022-08-11T05:28:09;21.20;99.90
30473;DHT22;17263;48.160;11.452;2022-08-11T05:31:06;21.20;99.90
30473;DHT22;17263;48.160;11.452;2022-08-11T05:33:59;21.20;99.90
30473;DHT22;17263;48.160;11.452;2022-08-11T05:37:00;21.30;99.90
30473;DHT22;17263;48.160;11.452;2022-08-11T05:39:30;21.80;99.50
30473;DHT22;17263;48.160;11.452;2022-08-11T05:42:16;22.50;98.40
30473;DHT22;17263;48.160;11.452;2022-08-11T05:45:21;23.30;96.40
30473;DHT22;17263;48.160;11.452;2022-08-11T05:48:06;24.30;93.90
30473;DHT22;17263;48.160;11.452;2022-08-11T05:50:58;24.90;91.50
30473;DHT22;17263;48.160;11.452;2022-08-11T05:56:42;25.70;84.60
30473;DHT22;17263;48.160;11.452;2022-08-11T05:59:15;26.30;81.90
30473;DHT22;17263;48.160;11.452;2022-08-11T06:01:43;26.70;77.80
30473;DHT22;17263;48.160;11.452;2022-08-11T06:04:19;26.90;76.00
30473;DHT22;17263;48.160;11.452;2022-08-11T06:06:51;27.20;74.90
30473;DHT22;17263;48.160;11.452;2022-08-11T06:09:33;27.40;71.80
30473;DHT22;17263;48.160;11.452;2022-08-11T06:12:08;27.60;69.50
30473;DHT22;17263;48.160;11.452;2022-08-11T06:14:42;27.70;67.10
30473;DHT22;17263;48.160;11.452;2022-08-11T06:17:09;27.90;65.50
30473;DHT22;17263;48.160;11.452;2022-08-11T06:19:41;27.90;64.70
30473;DHT22;17263;48.160;11.452;2022-08-11T06:22:10;27.70;63.60
30473;DHT22;17263;48.160;11.452;2022-08-11T06:24:39;27.20;63.60
30473;DHT22;17263;48.160;11.452;2022-08-11T06:27:06;27.00;64.60
30473;DHT22;17263;48.160;11.452;2022-08-11T06:29:36;27.40;62.80
30473;DHT22;17263;48.160;11.452;2022-08-11T06:32:06;27.40;62.80
30473;DHT22;17263;48.160;11.452;2022-08-11T06:34:52;27.40;63.60
30473;DHT22;17263;48.160;11.452;2022-08-11T06:42:57;27.80;61.70
30473;DHT22;17263;48.160;11.452;2022-08-11T06:45:50;28.10;59.20
30473;DHT22;17263;48.160;11.452;2022-08-11T06:48:21;28.20;59.00
30473;DHT22;17263;48.160;11.452;2022-08-11T06:51:08;27.90;59.00
30473;DHT22;17263;48.160;11.452;2022-08-11T06:56:21;27.90;59.30
30473;DHT22;17263;48.160;11.452;2022-08-11T06:59:08;27.90;58.90
30473;DHT22;17263;48.160;11.452;2022-08-11T07:02:04;28.00;58.80
30473;DHT22;17263;48.160;11.452;2022-08-11T07:04:39;27.70;59.10
30473;DHT22;17263;48.160;11.452;2022-08-11T07:13:02;28.10;59.00
30473;DHT22;17263;48.160;11.452;2022-08-11T07:15:47;28.00;58.70
30473;DHT22;17263;48.160;11.452;2022-08-11T07:18:35;28.10;58.90
30473;DHT22;17263;48.160;11.452;2022-08-11T07:24:20;28.40;58.00
30473;DHT22;17263;48.160;11.452;2022-08-11T07:27:16;28.40;57.40
30473;DHT22;17263;48.160;11.452;2022-08-11T07:30:04;28.50;57.80
30473;DHT22;17263;48.160;11.452;2022-08-11T07:32:35;28.30;57.80
30473;DHT22;17263;48.160;11.452;2022-08-11T07:35:11;28.30;57.60
30473;DHT22;17263;48.160;11.452;2022-08-11T07:37:42;28.40;58.10
30473;DHT22;17263;48.160;11.452;2022-08-11T07:40:10;28.30;58.00
30473;DHT22;17263;48.160;11.452;2022-08-11T07:42:37;28.20;57.70
30473;DHT22;17263;48.160;11.452;2022-08-11T07:45:05;28.20;57.80
30473;DHT22;17263;48.160;11.452;2022-08-11T07:47:51;28.20;57.40
30473;DHT22;17263;48.160;11.452;2022-08-11T07:50:40;28.10;57.80
30473;DHT22;17263;48.160;11.452;2022-08-11T07:53:26;28.10;57.70
30473;DHT22;17263;48.160;11.452;2022-08-11T07:55:55;28.30;57.90
30473;DHT22;17263;48.160;11.452;2022-08-11T07:58:22;28.20;57.60
30473;DHT22;17263;48.160;11.452;2022-08-11T08:01:10;28.30;57.40
30473;DHT22;17263;48.160;11.452;2022-08-11T08:03:58;27.70;58.20
30473;DHT22;17263;48.160;11.452;2022-08-11T08:06:43;27.60;58.80
30473;DHT22;17263;48.160;11.452;2022-08-11T08:09:32;27.60;58.20
30473;DHT22;17263;48.160;11.452;2022-08-11T08:12:20;27.80;58.30
30473;DHT22;17263;48.160;11.452;2022-08-11T08:15:07;28.10;58.50
30473;DHT22;17263;48.160;11.452;2022-08-11T08:17:54;28.30;57.30
30473;DHT22;17263;48.160;11.452;2022-08-11T08:20:25;28.50;57.30
30473;DHT22;17263;48.160;11.452;2022-08-11T08:22:54;28.60;56.80
30473;DHT22;17263;48.160;11.452;2022-08-11T08:25:25;28.40;56.80
30473;DHT22;17263;48.160;11.452;2022-08-11T08:27:53;28.20;57.80
30473;DHT22;17263;48.160;11.452;2022-08-11T08:30:19;28.00;57.60
30473;DHT22;17263;48.160;11.452;2022-08-11T08:33:04;27.80;58.20
30473;DHT22;17263;48.160;11.452;2022-08-11T08:35:31;27.50;59.00
30473;DHT22;17263;48.160;11.452;2022-08-11T08:37:57;27.40;59.50
30473;DHT22;17263;48.160;11.452;2022-08-11T08:40:25;27.50;59.50
30473;DHT22;17263;48.160;11.452;2022-08-11T08:42:55;27.70;59.70
30473;DHT22;17263;48.160;11.452;2022-08-11T08:45:24;28.10;59.40
30473;DHT22;17263;48.160;11.452;2022-08-11T08:48:02;28.30;57.60
30473;DHT22;17263;48.160;11.452;2022-08-11T08:50:32;28.20;58.10
30473;DHT22;17263;48.160;11.452;2022-08-11T08:53:24;28.40;58.60
30473;DHT22;17263;48.160;11.452;2022-08-11T08:55:57;28.50;58.00
30473;DHT22;17263;48.160;11.452;2022-08-11T08:58:24;28.40;57.70
30473;DHT22;17263;48.160;11.452;2022-08-11T09:00:52;28.60;58.00
30473;DHT22;17263;48.160;11.452;2022-08-11T09:03:20;28.60;57.10
30473;DHT22;17263;48.160;11.452;2022-08-11T09:05:47;28.50;58.20
30473;DHT22;17263;48.160;11.452;2022-08-11T09:08:16;28.60;57.20
30473;DHT22;17263;48.160;11.452;2022-08-11T09:10:46;28.50;57.80
30473;DHT22;17263;48.160;11.452;2022-08-11T09:13:33;28.30;57.60
30473;DHT22;17263;48.160;11.452;2022-08-11T09:16:02;28.40;57.90
30473;DHT22;17263;48.160;11.452;2022-08-11T09:18:29;28.60;57.40
30473;DHT22;17263;48.160;11.452;2022-08-11T09:20:57;28.30;57.70
30473;DHT22;17263;48.160;11.452;2022-08-11T09:23:24;28.10;57.80
30473;DHT22;17263;48.160;11.452;2022-08-11T09:26:09;28.10;58.20
30473;DHT22;17263;48.160;11.452;2022-08-11T09:28:55;28.10;57.90
30473;DHT22;17263;48.160;11.452;2022-08-11T09:31:22;28.20;57.70
30473;DHT22;17263;48.160;11.452;2022-08-11T09:33:51;28.00;57.30
30473;DHT22;17263;48.160;11.452;2022-08-11T09:36:19;28.00;58.10
30473;DHT22;17263;48.160;11.452;2022-08-11T09:39:04;27.90;58.10
30473;DHT22;17263;48.160;11.452;2022-08-11T09:41:49;27.80;57.60
30473;DHT22;17263;48.160;11.452;2022-08-11T09:44:16;27.50;58.30
30473;DHT22;17263;48.160;11.452;2022-08-11T09:47:02;27.60;58.60
30473;DHT22;17263;48.160;11.452;2022-08-11T09:49:30;27.80;58.20
30473;DHT22;17263;48.160;11.452;2022-08-11T09:51:57;27.70;59.40
30473;DHT22;17263;48.160;11.452;2022-08-11T09:54:25;27.50;58.70
30473;DHT22;17263;48.160;11.452;2022-08-11T09:56:52;27.50;58.40
30473;DHT22;17263;48.160;11.452;2022-08-11T09:59:37;27.60;58.80
30473;DHT22;17263;48.160;11.452;2022-08-11T10:02:04;27.60;58.80
30473;DHT22;17263;48.160;11.452;2022-08-11T10:04:43;27.80;57.90
30473;DHT22;17263;48.160;11.452;2022-08-11T10:07:14;27.80;58.10
30473;DHT22;17263;48.160;11.452;2022-08-11T10:09:54;27.90;57.10
30473;DHT22;17263;48.160;11.452;2022-08-11T10:12:31;27.80;57.80
30473;DHT22;17263;48.160;11.452;2022-08-11T10:15:01;28.00;57.80
30473;DHT22;17263;48.160;11.452;2022-08-11T10:17:48;27.80;56.40
30473;DHT22;17263;48.160;11.452;2022-08-11T10:20:37;27.60;56.80
30473;DHT22;17263;48.160;11.452;2022-08-11T10:23:04;27.30;57.30
30473;DHT22;17263;48.160;11.452;2022-08-11T10:25:49;27.30;56.60
30473;DHT22;17263;48.160;11.452;2022-08-11T10:28:35;27.30;56.80
30473;DHT22;17263;48.160;11.452;2022-08-11T10:31:03;27.20;56.50
30473;DHT22;17263;48.160;11.452;2022-08-11T10:33:49;27.30;55.70
30473;DHT22;17263;48.160;11.452;2022-08-11T10:36:31;27.20;55.10
30473;DHT22;17263;48.160;11.452;2022-08-11T10:39:00;27.10;56.10
30473;DHT22;17263;48.160;11.452;2022-08-11T10:41:27;27.00;56.10
30473;DHT22;17263;48.160;11.452;2022-08-11T10:44:12;26.70;56.80
30473;DHT22;17263;48.160;11.452;2022-08-11T10:46:39;26.60;57.00
30473;DHT22;17263;48.160;11.452;2022-08-11T10:49:24;26.20;57.80
30473;DHT22;17263;48.160;11.452;2022-08-11T10:51:52;26.10;58.40
30473;DHT22;17263;48.160;11.452;2022-08-11T10:54:40;26.00;58.10
30473;DHT22;17263;48.160;11.452;2022-08-11T10:57:27;25.80;58.80
30473;DHT22;17263;48.160;11.452;2022-08-11T11:00:13;25.70;58.80
30473;DHT22;17263;48.160;11.452;2022-08-11T11:02:41;25.60;58.90
30473;DHT22;17263;48.160;11.452;2022-08-11T11:05:21;25.40;59.00
30473;DHT22;17263;48.160;11.452;2022-08-11T11:08:13;25.40;59.40
30473;DHT22;17263;48.160;11.452;2022-08-11T11:10:59;25.20;60.20
30473;DHT22;17263;48.160;11.452;2022-08-11T11:13:26;25.20;59.80
30473;DHT22;17263;48.160;11.452;2022-08-11T11:16:12;25.20;60.50
30473;DHT22;17263;48.160;11.452;2022-08-11T11:18:59;25.20;60.50
30473;DHT22;17263;48.160;11.452;2022-08-11T11:21:29;25.20;61.20
30473;DHT22;17263;48.160;11.452;2022-08-11T11:27:13;25.20;61.10
30473;DHT22;17263;48.160;11.452;2022-08-11T11:30:02;25.20;61.10
30473;DHT22;17263;48.160;11.452;2022-08-11T11:32:54;25.10;61.30
30473;DHT22;17263;48.160;11.452;2022-08-11T11:38:36;25.40;62.30
30473;DHT22;17263;48.160;11.452;2022-08-11T11:41:02;25.40;61.60
30473;DHT22;17263;48.160;11.452;2022-08-11T11:43:47;25.40;60.00
30473;DHT22;17263;48.160;11.452;2022-08-11T11:46:13;25.40;60.50
30473;DHT22;17263;48.160;11.452;2022-08-11T11:48:41;25.40;60.60
30473;DHT22;17263;48.160;11.452;2022-08-11T11:51:08;25.30;61.50
30473;DHT22;17263;48.160;11.452;2022-08-11T11:53:35;25.40;61.10
30473;DHT22;17263;48.160;11.452;2022-08-11T11:56:01;25.50;60.70
30473;DHT22;17263;48.160;11.452;2022-08-11T11:58:28;25.50;61.50
30473;DHT22;17263;48.160;11.452;2022-08-11T12:01:13;25.60;61.20
30473;DHT22;17263;48.160;11.452;2022-08-11T12:03:48;25.70;61.70
30473;DHT22;17263;48.160;11.452;2022-08-11T12:06:16;25.70;60.10
30473;DHT22;17263;48.160;11.452;2022-08-11T12:08:43;25.70;60.90
30473;DHT22;17263;48.160;11.452;2022-08-11T12:11:14;25.90;59.70
30473;DHT22;17263;48.160;11.452;2022-08-11T12:14:04;25.90;59.20
30473;DHT22;17263;48.160;11.452;2022-08-11T12:16:33;25.90;59.50
30473;DHT22;17263;48.160;11.452;2022-08-11T12:19:01;25.90;59.60
30473;DHT22;17263;48.160;11.452;2022-08-11T12:21:29;25.90;59.20
30473;DHT22;17263;48.160;11.452;2022-08-11T12:23:56;26.00;58.80
30473;DHT22;17263;48.160;11.452;2022-08-11T12:26:44;26.10;58.90
30473;DHT22;17263;48.160;11.452;2022-08-11T12:29:14;26.20;58.70
30473;DHT22;17263;48.160;11.452;2022-08-11T12:31:41;26.10;59.50
30473;DHT22;17263;48.160;11.452;2022-08-11T12:34:09;26.20;58.70
30473;DHT22;17263;48.160;11.452;2022-08-11T12:36:38;26.20;58.60
30473;DHT22;17263;48.160;11.452;2022-08-11T12:39:12;26.20;58.20
30473;DHT22;17263;48.160;11.452;2022-08-11T12:41:44;26.10;58.80
30473;DHT22;17263;48.160;11.452;2022-08-11T12:44:30;26.20;58.30
30473;DHT22;17263;48.160;11.452;2022-08-11T12:47:19;26.20;58.80
30473;DHT22;17263;48.160;11.452;2022-08-11T12:49:49;26.30;58.20
30473;DHT22;17263;48.160;11.452;2022-08-11T12:52:43;26.20;58.10
30473;DHT22;17263;48.160;11.452;2022-08-11T12:55:12;26.20;58.60
30473;DHT22;17263;48.160;11.452;2022-08-11T12:57:59;26.10;59.00
30473;DHT22;17263;48.160;11.452;2022-08-11T13:00:43;26.10;59.00
30473;DHT22;17263;48.160;11.452;2022-08-11T13:03:29;26.20;58.50
30473;DHT22;17263;48.160;11.452;2022-08-11T13:06:14;26.30;58.30
30473;DHT22;17263;48.160;11.452;2022-08-11T13:08:41;26.40;57.90
30473;DHT22;17263;48.160;11.452;2022-08-11T13:11:08;26.50;58.70
30473;DHT22;17263;48.160;11.452;2022-08-11T13:13:54;26.50;58.30
30473;DHT22;17263;48.160;11.452;2022-08-11T13:16:29;26.60;57.10
30473;DHT22;17263;48.160;11.452;2022-08-11T13:18:58;26.60;57.50
30473;DHT22;17263;48.160;11.452;2022-08-11T13:21:26;26.60;58.30
30473;DHT22;17263;48.160;11.452;2022-08-11T13:23:54;26.70;56.70
30473;DHT22;17263;48.160;11.452;2022-08-11T13:26:22;26.80;57.10
30473;DHT22;17263;48.160;11.452;2022-08-11T13:28:49;26.70;57.30
30473;DHT22;17263;48.160;11.452;2022-08-11T13:31:16;26.80;57.80
30473;DHT22;17263;48.160;11.452;2022-08-11T13:33:48;26.80;56.80
30473;DHT22;17263;48.160;11.452;2022-08-11T13:36:21;26.80;56.90
30473;DHT22;17263;48.160;11.452;2022-08-11T13:38:52;26.80;56.60
30473;DHT22;17263;48.160;11.452;2022-08-11T13:41:19;26.80;56.40
30473;DHT22;17263;48.160;11.452;2022-08-11T13:44:05;26.70;56.40
30473;DHT22;17263;48.160;11.452;2022-08-11T13:46:33;26.70;56.80
30473;DHT22;17263;48.160;11.452;2022-08-11T13:49:01;26.70;56.50
30473;DHT22;17263;48.160;11.452;2022-08-11T13:51:28;26.70;56.70
30473;DHT22;17263;48.160;11.452;2022-08-11T13:54:16;26.70;56.20
30473;DHT22;17263;48.160;11.452;2022-08-11T13:56:46;26.60;55.90
30473;DHT22;17263;48.160;11.452;2022-08-11T13:59:14;26.50;56.70
30473;DHT22;17263;48.160;11.452;2022-08-11T14:01:47;26.50;56.00
30473;DHT22;17263;48.160;11.452;2022-08-11T14:04:19;26.50;55.60
30473;DHT22;17263;48.160;11.452;2022-08-11T14:06:51;26.50;55.20
30473;DHT22;17263;48.160;11.452;2022-08-11T14:09:26;26.50;56.60
30473;DHT22;17263;48.160;11.452;2022-08-11T14:11:57;26.50;56.50
30473;DHT22;17263;48.160;11.452;2022-08-11T14:14:46;26.60;56.30
30473;DHT22;17263;48.160;11.452;2022-08-11T14:17:15;26.60;56.50
30473;DHT22;17263;48.160;11.452;2022-08-11T14:19:43;26.70;56.20
30473;DHT22;17263;48.160;11.452;2022-08-11T14:22:14;26.70;55.20
30473;DHT22;17263;48.160;11.452;2022-08-11T14:24:42;26.70;55.20
30473;DHT22;17263;48.160;11.452;2022-08-11T14:27:10;26.60;55.80
30473;DHT22;17263;48.160;11.452;2022-08-11T14:29:39;26.70;55.00
30473;DHT22;17263;48.160;11.452;2022-08-11T14:32:07;26.80;55.20
30473;DHT22;17263;48.160;11.452;2022-08-11T14:34:38;26.80;55.70
30473;DHT22;17263;48.160;11.452;2022-08-11T14:37:07;26.70;54.30
30473;DHT22;17263;48.160;11.452;2022-08-11T14:39:42;26.60;55.00
30473;DHT22;17263;48.160;11.452;2022-08-11T14:42:09;26.60;54.40
30473;DHT22;17263;48.160;11.452;2022-08-11T14:45:05;26.50;55.00
30473;DHT22;17263;48.160;11.452;2022-08-11T14:47:52;26.50;55.20
30473;DHT22;17263;48.160;11.452;2022-08-11T14:50:23;26.40;55.50
30473;DHT22;17263;48.160;11.452;2022-08-11T14:53:05;26.50;55.70
30473;DHT22;17263;48.160;11.452;2022-08-11T14:55:38;26.50;55.30
30473;DHT22;17263;48.160;11.452;2022-08-11T14:58:27;26.40;54.50
30473;DHT22;17263;48.160;11.452;2022-08-11T15:00:56;26.30;54.70
30473;DHT22;17263;48.160;11.452;2022-08-11T15:03:24;26.30;55.50
30473;DHT22;17263;48.160;11.452;2022-08-11T15:05:58;26.20;55.20
30473;DHT22;17263;48.160;11.452;2022-08-11T15:08:32;26.20;54.40
30473;DHT22;17263;48.160;11.452;2022-08-11T15:11:19;26.20;54.40
30473;DHT22;17263;48.160;11.452;2022-08-11T15:14:07;26.10;53.90
30473;DHT22;17263;48.160;11.452;2022-08-11T15:16:39;26.00;54.50
30473;DHT22;17263;48.160;11.452;2022-08-11T15:19:24;26.10;55.40
30473;DHT22;17263;48.160;11.452;2022-08-11T15:21:51;26.10;54.80
30473;DHT22;17263;48.160;11.452;2022-08-11T15:24:36;26.20;54.20
30473;DHT22;17263;48.160;11.452;2022-08-11T15:27:10;26.20;53.60
30473;DHT22;17263;48.160;11.452;2022-08-11T15:29:57;26.20;54.00
30473;DHT22;17263;48.160;11.452;2022-08-11T15:32:43;26.20;53.40
30473;DHT22;17263;48.160;11.452;2022-08-11T15:35:30;26.30;52.80
30473;DHT22;17263;48.160;11.452;2022-08-11T15:38:18;26.30;52.80
30473;DHT22;17263;48.160;11.452;2022-08-11T15:40:44;26.30;52.30
30473;DHT22;17263;48.160;11.452;2022-08-11T15:43:42;26.30;52.50
30473;DHT22;17263;48.160;11.452;2022-08-11T15:46:34;26.40;51.60
30473;DHT22;17263;48.160;11.452;2022-08-11T15:49:28;26.40;52.40
30473;DHT22;17263;48.160;11.452;2022-08-11T15:52:06;26.50;52.40
30473;DHT22;17263;48.160;11.452;2022-08-11T15:54:39;26.40;51.90
30473;DHT22;17263;48.160;11.452;2022-08-11T15:57:07;26.30;51.70
30473;DHT22;17263;48.160;11.452;2022-08-11T15:59:37;26.20;51.50
30473;DHT22;17263;48.160;11.452;2022-08-11T16:02:36;26.00;51.10
30473;DHT22;17263;48.160;11.452;2022-08-11T16:05:22;26.00;51.10
30473;DHT22;17263;48.160;11.452;2022-08-11T16:07:50;25.90;51.80
30473;DHT22;17263;48.160;11.452;2022-08-11T16:10:19;25.80;51.60
30473;DHT22;17263;48.160;11.452;2022-08-11T16:12:57;25.80;51.50
30473;DHT22;17263;48.160;11.452;2022-08-11T16:15:32;25.70;52.30
30473;DHT22;17263;48.160;11.452;2022-08-11T16:18:23;25.60;52.50
30473;DHT22;17263;48.160;11.452;2022-08-11T16:21:20;25.60;52.90
30473;DHT22;17263;48.160;11.452;2022-08-11T16:23:52;25.50;52.30
30473;DHT22;17263;48.160;11.452;2022-08-11T16:26:21;25.40;52.40
30473;DHT22;17263;48.160;11.452;2022-08-11T16:28:52;25.20;51.80
30473;DHT22;17263;48.160;11.452;2022-08-11T16:31:20;25.10;51.40
30473;DHT22;17263;48.160;11.452;2022-08-11T16:33:48;25.00;51.80
30473;DHT22;17263;48.160;11.452;2022-08-11T16:36:15;24.90;52.50
30473;DHT22;17263;48.160;11.452;2022-08-11T16:39:02;24.80;52.70
30473;DHT22;17263;48.160;11.452;2022-08-11T16:41:31;24.70;53.10
30473;DHT22;17263;48.160;11.452;2022-08-11T16:44:19;24.70;53.00
30473;DHT22;17263;48.160;11.452;2022-08-11T16:47:06;24.70;53.80
30473;DHT22;17263;48.160;11.452;2022-08-11T16:49:41;24.60;54.10
30473;DHT22;17263;48.160;11.452;2022-08-11T16:52:08;24.50;54.50
30473;DHT22;17263;48.160;11.452;2022-08-11T16:54:40;24.50;54.60
30473;DHT22;17263;48.160;11.452;2022-08-11T16:57:15;24.50;55.30
30473;DHT22;17263;48.160;11.452;2022-08-11T17:00:05;24.50;55.80
30473;DHT22;17263;48.160;11.452;2022-08-11T17:02:35;24.40;56.50
30473;DHT22;17263;48.160;11.452;2022-08-11T17:05:23;24.30;56.10
30473;DHT22;17263;48.160;11.452;2022-08-11T17:08:09;24.30;55.90
30473;DHT22;17263;48.160;11.452;2022-08-11T17:10:59;24.30;55.50
30473;DHT22;17263;48.160;11.452;2022-08-11T17:13:56;24.20;56.20
30473;DHT22;17263;48.160;11.452;2022-08-11T17:16:31;24.20;56.00
30473;DHT22;17263;48.160;11.452;2022-08-11T17:19:04;24.10;56.00
30473;DHT22;17263;48.160;11.452;2022-08-11T17:21:37;24.10;56.50
30473;DHT22;17263;48.160;11.452;2022-08-11T17:24:28;24.00;56.40
30473;DHT22;17263;48.160;11.452;2022-08-11T17:26:56;24.00;56.20
30473;DHT22;17263;48.160;11.452;2022-08-11T17:32:07;23.90;56.60
30473;DHT22;17263;48.160;11.452;2022-08-11T17:34:57;23.80;56.40
30473;DHT22;17263;48.160;11.452;2022-08-11T17:37:43;23.80;56.40
30473;DHT22;17263;48.160;11.452;2022-08-11T17:40:12;23.70;56.30
30473;DHT22;17263;48.160;11.452;2022-08-11T17:42:39;23.70;56.20
30473;DHT22;17263;48.160;11.452;2022-08-11T17:45:25;23.70;56.20
30473;DHT22;17263;48.160;11.452;2022-08-11T17:48:12;23.60;56.30
30473;DHT22;17263;48.160;11.452;2022-08-11T17:50:53;23.60;56.40
30473;DHT22;17263;48.160;11.452;2022-08-11T17:53:20;23.60;56.50
30473;DHT22;17263;48.160;11.452;2022-08-11T17:56:06;23.60;56.70
30473;DHT22;17263;48.160;11.452;2022-08-11T17:58:59;23.60;56.60
30473;DHT22;17263;48.160;11.452;2022-08-11T18:01:46;23.50;56.20
30473;DHT22;17263;48.160;11.452;2022-08-11T18:04:14;23.50;55.60
30473;DHT22;17263;48.160;11.452;2022-08-11T18:06:41;23.50;55.70
30473;DHT22;17263;48.160;11.452;2022-08-11T18:09:13;23.50;55.50
30473;DHT22;17263;48.160;11.452;2022-08-11T18:11:59;23.50;55.80
30473;DHT22;17263;48.160;11.452;2022-08-11T18:14:50;23.40;56.00
30473;DHT22;17263;48.160;11.452;2022-08-11T18:17:36;23.30;56.10
30473;DHT22;17263;48.160;11.452;2022-08-11T18:20:22;23.30;56.00
30473;DHT22;17263;48.160;11.452;2022-08-11T18:23:11;23.30;56.20
30473;DHT22;17263;48.160;11.452;2022-08-11T18:26:00;23.20;56.40
30473;DHT22;17263;48.160;11.452;2022-08-11T18:28:50;23.20;56.50
30473;DHT22;17263;48.160;11.452;2022-08-11T18:31:43;23.10;57.00
30473;DHT22;17263;48.160;11.452;2022-08-11T18:34:37;23.00;57.40
30473;DHT22;17263;48.160;11.452;2022-08-11T18:37:29;22.90;57.30
30473;DHT22;17263;48.160;11.452;2022-08-11T18:40:23;22.90;57.50
30473;DHT22;17263;48.160;11.452;2022-08-11T18:43:11;22.80;57.70
30473;DHT22;17263;48.160;11.452;2022-08-11T18:46:03;22.70;58.30
30473;DHT22;17263;48.160;11.452;2022-08-11T18:48:56;22.50;58.40
30473;DHT22;17263;48.160;11.452;2022-08-11T18:51:46;22.50;58.70
30473;DHT22;17263;48.160;11.452;2022-08-11T18:54:34;22.40;59.00
30473;DHT22;17263;48.160;11.452;2022-08-11T18:57:21;22.30;59.30
30473;DHT22;17263;48.160;11.452;2022-08-11T19:00:07;22.20;59.30
30473;DHT22;17263;48.160;11.452;2022-08-11T19:02:54;22.20;59.90
30473;DHT22;17263;48.160;11.452;2022-08-11T19:05:40;22.10;59.80
30473;DHT22;17263;48.160;11.452;2022-08-11T19:08:29;22.10;59.70
30473;DHT22;17263;48.160;11.452;2022-08-11T19:11:15;22.00;60.30